Green Oak Township, Michigan
Current Conditions -  °F | °C
As of 4:15 AM on Monday 20 Oct 2014 (Local Time) from KOZW Reporting Station
Overcast Overcast  
Wind Chill: 42°   Ceiling: 4300
Heat Index: 45°   Visibility: 10mi
Dew Point: 43°   Wind: 6mph
Humidity: 91%   Direction: 180°S
Pressure: 29.87"   Gusts: NA
Location:  42.5333°N, 83.7735°W
Report Text: KOZW 200815Z AUTO 18005KT 10SM BKN043 OVC050 07/06 A2987 RMK AO2 T00740060
Loading
Personal Weather Stations






























Interactive Weather Map New forecast layout! Learn more

10-Day Weather Forecast

Advertisements
Track Severe Weather on mobile